createdAt,value
2019-04-03T00:01:11.605Z,73.80
2019-04-03T00:01:58.629Z,73.28
2019-04-03T00:02:58.620Z,73.28
2019-04-03T00:03:58.606Z,73.70
2019-04-03T00:04:58.608Z,74.05
2019-04-03T00:05:58.578Z,74.57
2019-04-03T00:06:58.578Z,74.37
2019-04-03T00:07:58.557Z,74.79
2019-04-03T00:08:58.584Z,74.37
2019-04-03T00:09:58.677Z,74.68
2019-04-03T00:10:58.526Z,74.92
2019-04-03T00:11:58.634Z,75.98
2019-04-03T00:12:58.505Z,76.08
2019-04-03T00:13:58.503Z,76.08
2019-04-03T00:14:58.518Z,76.01
2019-04-03T00:15:58.471Z,77.06
2019-04-03T00:16:58.463Z,77.03
2019-04-03T00:17:58.450Z,76.64
2019-04-03T00:18:58.445Z,76.96
2019-04-03T00:19:58.441Z,76.86
2019-04-03T00:20:58.457Z,76.86
2019-04-03T00:21:58.411Z,77.38
2019-04-03T00:22:58.460Z,76.75
2019-04-03T00:23:58.390Z,76.96
2019-04-03T00:24:58.383Z,76.64
2019-04-03T00:25:58.372Z,77.38
2019-04-03T00:26:58.371Z,77.17
2019-04-03T00:27:58.344Z,77.06
2019-04-03T00:28:58.333Z,77.48
2019-04-03T00:29:58.324Z,77.17
2019-04-03T00:30:58.316Z,77.59
2019-04-03T00:32:11.028Z,77.59
2019-04-03T00:32:58.983Z,77.70
2019-04-03T00:33:58.280Z,77.28
2019-04-03T00:34:58.347Z,77.59
2019-04-03T00:35:58.258Z,77.38
2019-04-03T00:36:58.264Z,78.02
2019-04-03T00:37:58.242Z,77.45
2019-04-03T00:38:58.231Z,77.24
2019-04-03T00:39:58.217Z,77.28
2019-04-03T00:40:58.206Z,77.06
2019-04-03T00:41:58.199Z,76.75
2019-04-03T00:42:58.226Z,77.17
2019-04-03T00:43:58.176Z,77.28
2019-04-03T00:44:58.274Z,77.06
2019-04-03T00:45:58.149Z,77.28
2019-04-03T00:46:58.149Z,77.48
2019-04-03T00:47:58.131Z,77.80
2019-04-03T00:48:58.191Z,77.17
2019-04-03T00:49:58.110Z,78.33
2019-04-03T00:50:58.140Z,78.26
2019-04-03T00:51:58.135Z,77.94
2019-04-03T00:52:58.084Z,78.58
2019-04-03T00:53:58.238Z,78.79
2019-04-03T00:54:58.054Z,79.46
2019-04-03T00:55:58.045Z,79.56
2019-04-03T00:56:58.046Z,79.56
2019-04-03T00:57:58.109Z,80.41
2019-04-03T00:58:58.023Z,80.97
2019-04-03T00:59:58.019Z,80.93
2019-04-03T01:00:58.017Z,81.46
2019-04-03T01:01:57.984Z,81.78
2019-04-03T01:03:10.899Z,81.25
2019-04-03T01:03:58.873Z,81.92
2019-04-03T01:04:58.800Z,81.67
2019-04-03T01:05:58.345Z,81.15
2019-04-03T01:06:58.677Z,81.46
2019-04-03T01:07:59.910Z,81.67
2019-04-03T01:08:59.433Z,81.78
2019-04-03T01:09:59.532Z,81.29
2019-04-03T01:11:00.034Z,81.88
2019-04-03T01:12:00.133Z,81.88
2019-04-03T01:12:57.869Z,81.67
2019-04-03T01:13:57.867Z,80.73
2019-04-03T01:14:57.849Z,80.41
2019-04-03T01:15:57.834Z,80.73
2019-04-03T01:16:58.047Z,81.67
2019-04-03T01:17:57.815Z,81.60
2019-04-03T01:18:57.808Z,81.71
2019-04-03T01:19:57.986Z,81.92
2019-04-03T01:20:57.778Z,81.92
2019-04-03T01:21:57.818Z,82.45
2019-04-03T01:22:57.761Z,82.98
2019-04-03T01:23:57.747Z,83.08
2019-04-03T01:24:57.744Z,83.44
2019-04-03T01:25:57.733Z,83.75
2019-04-03T01:26:57.813Z,83.86
2019-04-03T01:27:57.744Z,83.61
2019-04-03T01:28:57.696Z,84.14
2019-04-03T01:29:57.683Z,84.14
2019-04-03T01:30:57.805Z,84.77
2019-04-03T01:31:57.666Z,84.03
2019-04-03T01:32:57.783Z,84.14
2019-04-03T01:34:11.118Z,84.45
2019-04-03T01:34:57.636Z,84.24
2019-04-03T01:35:57.625Z,84.00
2019-04-03T01:36:57.833Z,83.68
2019-04-03T01:37:57.606Z,83.36
2019-04-03T01:38:57.590Z,83.68
2019-04-03T01:39:57.629Z,83.33
2019-04-03T01:40:57.628Z,83.22
2019-04-03T01:41:57.559Z,84.06
2019-04-03T01:42:57.547Z,83.53
2019-04-03T01:43:57.538Z,83.33
2019-04-03T01:44:57.536Z,83.33
2019-04-03T01:45:57.559Z,83.43
2019-04-03T01:46:58.090Z,83.33
2019-04-03T01:47:58.464Z,83.22
2019-04-03T01:48:58.642Z,83.43
2019-04-03T01:49:58.574Z,83.01
2019-04-03T01:50:59.410Z,83.75
2019-04-03T01:51:58.869Z,84.48
2019-04-03T01:52:57.599Z,83.53
2019-04-03T01:53:57.435Z,84.27
2019-04-03T01:54:57.426Z,84.45
2019-04-03T01:55:57.410Z,83.92
2019-04-03T01:56:57.397Z,84.13
2019-04-03T01:57:57.399Z,84.34
2019-04-03T01:58:57.387Z,83.18
2019-04-03T01:59:57.398Z,83.29
2019-04-03T02:00:57.360Z,83.39
2019-04-03T02:01:57.444Z,82.76
2019-04-03T02:02:57.381Z,82.13
2019-04-03T02:03:57.325Z,82.17
2019-04-03T02:05:12.202Z,83.22
2019-04-03T02:05:57.303Z,83.22
2019-04-03T02:06:57.298Z,83.53
2019-04-03T02:07:57.291Z,83.22
2019-04-03T02:08:57.322Z,83.64
2019-04-03T02:09:57.276Z,83.57
2019-04-03T02:10:57.253Z,83.57
2019-04-03T02:11:57.386Z,84.45
2019-04-03T02:12:57.237Z,85.16
2019-04-03T02:13:57.227Z,85.36
2019-04-03T02:14:57.437Z,84.20
2019-04-03T02:15:57.259Z,85.26
2019-04-03T02:16:57.191Z,85.64
2019-04-03T02:17:57.178Z,85.85
2019-04-03T02:18:57.169Z,85.96
2019-04-03T02:19:57.176Z,85.64
2019-04-03T02:20:58.073Z,86.17
2019-04-03T02:21:58.563Z,86.17
2019-04-03T02:22:59.655Z,85.75
2019-04-03T02:23:57.113Z,85.64
2019-04-03T02:24:58.053Z,86.07
2019-04-03T02:25:57.099Z,86.66
2019-04-03T02:26:57.135Z,86.87
2019-04-03T02:27:57.071Z,86.55
2019-04-03T02:28:57.101Z,85.71
2019-04-03T02:29:57.048Z,85.85
2019-04-03T02:30:57.042Z,85.71
2019-04-03T02:31:57.078Z,86.66
2019-04-03T02:32:57.572Z,87.08
2019-04-03T02:33:57.016Z,87.57
2019-04-03T02:34:57.000Z,86.72
2019-04-03T02:36:11.445Z,87.15
2019-04-03T02:36:56.986Z,87.15
2019-04-03T02:37:57.004Z,86.20
2019-04-03T02:38:56.959Z,85.99
2019-04-03T02:40:00.338Z,86.69
2019-04-03T02:40:57.169Z,85.78
2019-04-03T02:41:56.929Z,85.95
2019-04-03T02:42:56.912Z,85.63
2019-04-03T02:43:56.916Z,85.53
2019-04-03T02:44:56.896Z,85.85
2019-04-03T02:45:57.395Z,85.74
2019-04-03T02:46:59.559Z,85.95
2019-04-03T02:47:56.866Z,86.20
2019-04-03T02:48:56.852Z,86.10
2019-04-03T02:49:56.869Z,86.52
2019-04-03T02:50:56.836Z,87.04
2019-04-03T02:51:56.821Z,87.00
2019-04-03T02:52:58.694Z,86.69
2019-04-03T02:53:56.803Z,87.00
2019-04-03T02:54:57.077Z,86.90
2019-04-03T02:55:56.785Z,86.47
2019-04-03T02:56:57.093Z,86.58
2019-04-03T02:57:56.753Z,86.79
2019-04-03T02:58:56.816Z,86.05
2019-04-03T02:59:58.429Z,85.85
2019-04-03T03:00:56.893Z,86.02
2019-04-03T03:01:56.737Z,85.60
2019-04-03T03:02:56.709Z,84.92
2019-04-03T03:03:56.692Z,84.54
2019-04-03T03:04:56.961Z,84.75
2019-04-03T03:05:59.346Z,84.44
2019-04-03T03:07:10.071Z,84.44
2019-04-03T03:07:56.655Z,84.69
2019-04-03T03:08:56.638Z,84.44
2019-04-03T03:09:56.637Z,85.17
2019-04-03T03:10:56.658Z,84.86
2019-04-03T03:11:57.226Z,84.86
2019-04-03T03:12:59.935Z,84.44
2019-04-03T03:13:56.593Z,84.54
2019-04-03T03:14:56.574Z,84.12
2019-04-03T03:15:56.601Z,84.01
2019-04-03T03:16:56.599Z,84.23
2019-04-03T03:17:56.545Z,84.12
2019-04-03T03:18:59.875Z,84.12
2019-04-03T03:19:56.525Z,84.23
2019-04-03T03:20:56.516Z,84.65
2019-04-03T03:21:56.506Z,83.87
2019-04-03T03:22:56.497Z,84.23
2019-04-03T03:23:57.235Z,84.12
2019-04-03T03:24:59.740Z,83.49
2019-04-03T03:25:56.457Z,83.24
2019-04-03T03:26:56.481Z,83.07
2019-04-03T03:27:56.444Z,83.24
2019-04-03T03:28:56.787Z,83.17
2019-04-03T03:29:58.629Z,83.45
2019-04-03T03:31:02.067Z,83.34
2019-04-03T03:32:08.233Z,83.49
2019-04-03T03:33:21.816Z,83.17
2019-04-03T03:34:02.926Z,82.86
2019-04-03T03:35:09.829Z,83.34
2019-04-03T03:35:57.877Z,83.24
2019-04-03T03:37:00.595Z,83.34
2019-04-03T03:39:11.640Z,83.03
2019-04-03T03:40:10.818Z,82.82
2019-04-03T03:41:10.810Z,82.82
2019-04-03T03:42:10.805Z,82.92
2019-04-03T03:43:11.062Z,82.92
2019-04-03T03:44:11.759Z,82.92
2019-04-03T03:45:11.091Z,83.20
2019-04-03T03:46:11.161Z,81.94
2019-04-03T03:47:10.786Z,82.04
2019-04-03T03:48:11.172Z,82.04
2019-04-03T03:49:10.737Z,81.52
2019-04-03T03:50:10.723Z,81.94
2019-04-03T03:51:10.717Z,81.52
2019-04-03T03:52:11.018Z,81.48
2019-04-03T03:53:12.516Z,81.62
2019-04-03T03:54:10.813Z,81.48
2019-04-03T03:55:10.660Z,81.27
2019-04-03T03:56:10.646Z,81.59
2019-04-03T03:57:10.643Z,81.27
2019-04-03T03:58:12.555Z,81.27
2019-04-03T03:59:10.612Z,81.48
2019-04-03T04:00:10.614Z,81.48
2019-04-03T04:01:10.780Z,81.59
2019-04-03T04:02:10.585Z,80.75
2019-04-03T04:03:11.630Z,80.85
2019-04-03T04:04:13.218Z,80.54
2019-04-03T04:05:11.765Z,80.22
2019-04-03T04:06:10.537Z,80.11
2019-04-03T04:07:10.530Z,80.33
2019-04-03T04:08:11.595Z,80.11
2019-04-03T04:10:33.313Z,80.08
2019-04-03T04:11:31.197Z,80.40
2019-04-03T04:12:30.124Z,80.50
2019-04-03T04:13:30.286Z,80.50
2019-04-03T04:14:30.114Z,80.46
2019-04-03T04:15:31.016Z,80.57
2019-04-03T04:16:30.091Z,80.08
2019-04-03T04:17:30.087Z,80.40
2019-04-03T04:18:30.125Z,80.26
2019-04-03T04:19:31.057Z,80.26
2019-04-03T04:20:30.145Z,80.36
2019-04-03T04:21:30.351Z,80.22
2019-04-03T04:22:30.287Z,79.38
2019-04-03T04:23:30.013Z,79.41
2019-04-03T04:24:30.212Z,79.06
2019-04-03T04:25:31.083Z,79.58
2019-04-03T04:26:31.807Z,79.58
2019-04-03T04:27:33.583Z,79.80
2019-04-03T04:28:29.994Z,79.80
2019-04-03T04:29:31.022Z,79.48
2019-04-03T04:30:30.896Z,78.81
2019-04-03T04:31:30.905Z,78.61
2019-04-03T04:32:30.060Z,79.03
2019-04-03T04:33:29.930Z,78.92
2019-04-03T04:34:29.920Z,78.71
2019-04-03T04:35:29.925Z,78.92
2019-04-03T04:36:29.941Z,78.92
2019-04-03T04:37:30.091Z,78.92
2019-04-03T04:38:29.937Z,78.81
2019-04-03T04:39:29.833Z,79.10
2019-04-03T04:40:37.428Z,78.47
2019-04-03T04:41:32.217Z,78.05
2019-04-03T04:42:29.971Z,77.28
2019-04-03T04:43:30.021Z,77.91
2019-04-03T04:44:29.801Z,76.86
2019-04-03T04:45:29.774Z,77.34
2019-04-03T04:46:29.761Z,75.98
2019-04-03T04:47:29.765Z,72.68
2019-04-03T04:48:29.804Z,67.48
2019-04-03T04:49:29.883Z,63.96
2019-04-03T04:50:29.712Z,61.24
2019-04-03T04:51:29.705Z,58.49
2019-04-03T04:52:29.702Z,57.43
2019-04-03T04:53:30.249Z,56.60
2019-04-03T04:54:30.633Z,56.57
2019-04-03T04:55:31.233Z,55.56
2019-04-03T04:56:29.663Z,52.91
2019-04-03T04:57:29.649Z,52.47
2019-04-03T04:58:29.629Z,50.56
2019-04-03T04:59:29.617Z,49.40
2019-04-03T05:00:30.317Z,49.51
2019-04-03T05:01:29.631Z,49.71
2019-04-03T05:02:29.592Z,49.15
2019-04-03T05:03:29.596Z,48.66
2019-04-03T05:04:29.558Z,47.79
2019-04-03T05:05:31.170Z,47.91
2019-04-03T05:06:29.972Z,47.66
2019-04-03T05:07:30.833Z,46.76
2019-04-03T05:08:30.833Z,47.45
2019-04-03T05:09:29.502Z,46.33
2019-04-03T05:10:29.606Z,46.41
2019-04-03T05:11:41.963Z,45.79
2019-04-03T05:12:29.673Z,44.76
2019-04-03T05:13:29.463Z,45.28
2019-04-03T05:14:29.456Z,44.84
2019-04-03T05:15:29.439Z,44.51
2019-04-03T05:16:29.426Z,44.84
2019-04-03T05:17:29.492Z,45.04
2019-04-03T05:18:29.645Z,44.96
2019-04-03T05:19:29.391Z,45.07
2019-04-03T05:20:29.403Z,44.72
2019-04-03T05:21:29.473Z,44.24
2019-04-03T05:22:29.442Z,42.97
2019-04-03T05:23:29.381Z,42.95
2019-04-03T05:24:29.574Z,41.60
2019-04-03T05:25:29.841Z,41.60
2019-04-03T05:26:31.911Z,41.83
2019-04-03T05:27:29.329Z,41.50
2019-04-03T05:28:29.293Z,41.11
2019-04-03T05:29:29.291Z,40.45
2019-04-03T05:30:29.334Z,40.58
2019-04-03T05:31:29.266Z,40.25
2019-04-03T05:32:29.244Z,40.74
2019-04-03T05:33:29.251Z,39.89
2019-04-03T05:34:29.232Z,38.85
2019-04-03T05:35:29.210Z,39.19
2019-04-03T05:36:29.402Z,39.28
2019-04-03T05:37:29.187Z,39.19
2019-04-03T05:38:29.219Z,39.82
2019-04-03T05:39:29.210Z,39.07
2019-04-03T05:40:29.282Z,38.71
2019-04-03T05:41:29.385Z,37.93
2019-04-03T05:42:41.608Z,37.93
2019-04-03T05:43:30.844Z,38.52
2019-04-03T05:44:29.110Z,37.60
2019-04-03T05:45:29.222Z,38.03
2019-04-03T05:46:29.104Z,38.59
2019-04-03T05:47:29.239Z,38.90
2019-04-03T05:48:29.119Z,38.88
2019-04-03T05:49:29.247Z,38.35
2019-04-03T05:50:29.083Z,37.82
2019-04-03T05:51:29.753Z,38.13
2019-04-03T05:52:29.082Z,37.67
2019-04-03T05:53:29.217Z,36.73
2019-04-03T05:54:29.064Z,36.41
2019-04-03T05:55:29.038Z,35.97
2019-04-03T05:56:29.055Z,34.93
2019-04-03T05:57:29.609Z,34.67
2019-04-03T05:58:28.956Z,34.84
2019-04-03T05:59:32.681Z,35.36
2019-04-03T06:00:28.937Z,36.12
2019-04-03T06:01:29.069Z,35.69
2019-04-03T06:02:28.967Z,35.17
2019-04-03T06:03:40.458Z,35.14
2019-04-03T06:04:29.885Z,35.36
2019-04-03T06:05:29.027Z,35.25
2019-04-03T06:06:28.867Z,34.73
2019-04-03T06:07:28.861Z,33.44
2019-04-03T06:08:29.170Z,36.44
2019-04-03T06:09:28.870Z,37.26
2019-04-03T06:10:31.616Z,36.63
2019-04-03T06:11:28.802Z,35.60
2019-04-03T06:12:28.817Z,36.00
2019-04-03T06:13:42.157Z,36.31
2019-04-03T06:14:29.509Z,35.17
2019-04-03T06:15:28.793Z,35.47
2019-04-03T06:16:28.781Z,35.15
2019-04-03T06:17:28.845Z,34.20
2019-04-03T06:18:31.588Z,33.59
2019-04-03T06:19:28.768Z,33.61
2019-04-03T06:20:28.707Z,34.25
2019-04-03T06:21:28.717Z,35.02
2019-04-03T06:22:29.023Z,35.73
2019-04-03T06:23:28.672Z,36.47
2019-04-03T06:24:28.965Z,36.49
2019-04-03T06:25:30.486Z,37.23
2019-04-03T06:26:28.769Z,37.54
2019-04-03T06:27:29.624Z,37.23
2019-04-03T06:28:29.614Z,37.65
2019-04-03T06:29:28.614Z,38.27
2019-04-03T06:30:28.620Z,39.04
2019-04-03T06:31:29.030Z,39.07
2019-04-03T06:32:29.217Z,40.73
2019-04-03T06:33:31.324Z,41.56
2019-04-03T06:34:28.555Z,42.11
2019-04-03T06:35:28.548Z,42.58
2019-04-03T06:36:28.675Z,42.85
2019-04-03T06:37:28.689Z,44.74
2019-04-03T06:38:28.729Z,45.69
2019-04-03T06:39:31.214Z,46.33
2019-04-03T06:40:28.626Z,46.33
2019-04-03T06:41:28.482Z,47.09
2019-04-03T06:42:28.603Z,48.25
2019-04-03T06:43:30.420Z,48.05
2019-04-03T06:44:40.664Z,48.15
2019-04-03T06:45:28.742Z,47.63
2019-04-03T06:46:29.192Z,47.63
2019-04-03T06:47:28.417Z,47.66
2019-04-03T06:48:28.540Z,47.88
2019-04-03T06:49:28.471Z,47.97
2019-04-03T06:50:28.546Z,47.84
2019-04-03T06:51:36.098Z,48.15
2019-04-03T06:52:28.648Z,47.02
2019-04-03T06:53:29.094Z,46.81
2019-04-03T06:54:31.155Z,46.99
2019-04-03T06:55:28.321Z,47.20
2019-04-03T06:56:28.350Z,45.96
2019-04-03T06:57:28.297Z,46.35
2019-04-03T06:58:37.232Z,45.63
2019-04-03T06:59:29.425Z,45.65
2019-04-03T07:00:28.255Z,45.53
2019-04-03T07:01:28.422Z,45.83
2019-04-03T07:02:31.406Z,45.81
2019-04-03T07:03:28.278Z,45.40
2019-04-03T07:04:28.218Z,45.32
2019-04-03T07:05:28.430Z,45.32
2019-04-03T07:06:28.196Z,45.54
2019-04-03T07:07:34.156Z,45.32
2019-04-03T07:08:34.615Z,45.81
2019-04-03T07:09:35.620Z,45.23
2019-04-03T07:10:29.142Z,44.82
2019-04-03T07:11:28.142Z,45.54
2019-04-03T07:12:28.217Z,44.78
2019-04-03T07:13:29.730Z,44.78
2019-04-03T07:14:28.117Z,44.68
2019-04-03T07:15:40.574Z,43.93
2019-04-03T07:16:28.572Z,43.52
2019-04-03T07:17:29.785Z,43.73
2019-04-03T07:18:28.071Z,44.23
2019-04-03T07:19:28.046Z,43.50
2019-04-03T07:20:28.043Z,43.81
2019-04-03T07:21:28.124Z,43.09
2019-04-03T07:22:28.346Z,42.88
2019-04-03T07:23:29.895Z,42.99
2019-04-03T07:24:28.047Z,42.88
2019-04-03T07:25:28.032Z,41.85
2019-04-03T07:26:27.970Z,42.16
2019-04-03T07:27:27.967Z,41.97
2019-04-03T07:28:30.462Z,41.85
2019-04-03T07:29:27.968Z,41.75
2019-04-03T07:30:28.021Z,40.92
2019-04-03T07:31:27.917Z,41.83
2019-04-03T07:32:27.908Z,41.73
2019-04-03T07:33:28.671Z,40.99
2019-04-03T07:34:27.878Z,41.71
2019-04-03T07:35:27.871Z,41.20
2019-04-03T07:36:27.881Z,41.20
2019-04-03T07:37:27.902Z,41.71
2019-04-03T07:38:27.914Z,40.37
2019-04-03T07:39:27.874Z,40.99
2019-04-03T07:40:27.820Z,40.37
2019-04-03T07:41:27.985Z,40.27
2019-04-03T07:42:27.895Z,40.17
2019-04-03T07:43:28.215Z,38.91
2019-04-03T07:44:29.896Z,40.45
2019-04-03T07:45:27.778Z,40.77
2019-04-03T07:46:39.700Z,39.32
2019-04-03T07:47:27.740Z,39.32
2019-04-03T07:48:27.746Z,38.91
2019-04-03T07:49:27.844Z,38.59
2019-04-03T07:50:27.709Z,38.59
2019-04-03T07:51:27.706Z,38.59
2019-04-03T07:52:28.009Z,39.31
2019-04-03T07:53:27.697Z,38.17
2019-04-03T07:54:27.949Z,38.07
2019-04-03T07:55:28.509Z,38.46
2019-04-03T07:56:27.804Z,37.66
2019-04-03T07:57:29.217Z,38.07
2019-04-03T07:58:30.636Z,37.74
2019-04-03T07:59:27.611Z,37.64
2019-04-03T08:00:27.623Z,37.23
2019-04-03T08:01:27.589Z,37.42
2019-04-03T08:02:27.577Z,37.32
2019-04-03T08:03:27.833Z,36.49
2019-04-03T08:04:27.565Z,35.98
2019-04-03T08:05:30.356Z,36.37
2019-04-03T08:06:27.906Z,36.49
2019-04-03T08:07:27.523Z,36.68
2019-04-03T08:08:27.535Z,36.08
2019-04-03T08:09:27.494Z,35.86
2019-04-03T08:10:29.374Z,35.66
2019-04-03T08:11:27.470Z,36.46
2019-04-03T08:12:27.471Z,36.17
2019-04-03T08:13:27.721Z,35.96
2019-04-03T08:14:27.447Z,35.94
2019-04-03T08:15:27.426Z,37.16
2019-04-03T08:16:27.838Z,35.52
2019-04-03T08:17:40.647Z,34.30
2019-04-03T08:18:27.455Z,35.53
2019-04-03T08:19:27.541Z,34.51
2019-04-03T08:20:30.213Z,34.30
2019-04-03T08:21:28.006Z,34.51
2019-04-03T08:22:27.397Z,35.33
2019-04-03T08:23:27.340Z,35.64
2019-04-03T08:24:27.341Z,34.83
2019-04-03T08:25:27.602Z,34.73
2019-04-03T08:26:27.482Z,35.23
2019-04-03T08:27:27.294Z,34.61
2019-04-03T08:28:30.135Z,35.53
2019-04-03T08:29:27.276Z,34.41
2019-04-03T08:30:27.322Z,33.89
2019-04-03T08:31:27.349Z,34.28
2019-04-03T08:32:27.482Z,34.28
2019-04-03T08:33:27.841Z,34.48
2019-04-03T08:34:27.432Z,34.39
2019-04-03T08:35:27.204Z,34.08
2019-04-03T08:36:27.193Z,34.49
2019-04-03T08:37:31.121Z,34.39
2019-04-03T08:38:27.183Z,34.48
2019-04-03T08:39:27.237Z,33.65
2019-04-03T08:40:27.141Z,34.17
2019-04-03T08:41:27.166Z,33.77
2019-04-03T08:42:27.913Z,34.90
2019-04-03T08:43:27.105Z,33.96
2019-04-03T08:44:27.101Z,35.30
2019-04-03T08:45:27.161Z,34.68
2019-04-03T08:46:27.077Z,34.46
2019-04-03T08:47:27.120Z,34.87
2019-04-03T08:48:40.661Z,33.44
2019-04-03T08:49:27.231Z,33.84
2019-04-03T08:50:28.791Z,35.38
2019-04-03T08:51:27.021Z,35.08
2019-04-03T08:52:27.017Z,34.14
2019-04-03T08:53:27.014Z,33.84
2019-04-03T08:54:27.003Z,33.95
2019-04-03T08:55:26.976Z,34.15
2019-04-03T08:56:26.959Z,33.84
2019-04-03T08:57:27.246Z,35.28
2019-04-03T08:58:27.186Z,33.93
2019-04-03T08:59:28.741Z,33.31
2019-04-03T09:00:26.910Z,33.93
2019-04-03T09:01:26.910Z,33.31
2019-04-03T09:02:26.987Z,33.42
2019-04-03T09:03:27.161Z,33.09
2019-04-03T09:04:26.887Z,33.09
2019-04-03T09:05:26.865Z,33.09
2019-04-03T09:06:27.049Z,32.39
2019-04-03T09:07:26.847Z,32.60
2019-04-03T09:08:27.271Z,33.30
2019-04-03T09:09:29.094Z,32.70
2019-04-03T09:10:27.241Z,31.98
2019-04-03T09:11:26.863Z,31.37
2019-04-03T09:12:26.781Z,32.70
2019-04-03T09:13:26.769Z,32.38
2019-04-03T09:14:26.761Z,33.20
2019-04-03T09:15:28.267Z,32.89
2019-04-03T09:16:26.736Z,31.66
2019-04-03T09:17:26.955Z,31.85
2019-04-03T09:18:29.767Z,32.67
2019-04-03T09:19:41.711Z,32.16
2019-04-03T09:20:26.756Z,32.36
2019-04-03T09:21:26.720Z,32.06
2019-04-03T09:22:26.705Z,32.38
2019-04-03T09:23:26.660Z,31.97
2019-04-03T09:24:28.610Z,32.16
2019-04-03T09:25:26.668Z,32.06
2019-04-03T09:26:26.692Z,31.97
2019-04-03T09:27:26.639Z,32.58
2019-04-03T09:28:26.618Z,31.87
2019-04-03T09:29:26.589Z,32.36
2019-04-03T09:30:26.589Z,32.78
2019-04-03T09:31:26.577Z,32.67
2019-04-03T09:32:26.830Z,32.28
2019-04-03T09:33:29.221Z,32.28
2019-04-03T09:34:28.729Z,32.36
2019-04-03T09:35:26.628Z,32.36
2019-04-03T09:36:26.515Z,32.98
2019-04-03T09:37:26.593Z,32.98
2019-04-03T09:38:26.536Z,32.57
2019-04-03T09:39:26.480Z,31.95
2019-04-03T09:40:26.475Z,31.85
2019-04-03T09:41:26.463Z,32.28
2019-04-03T09:42:26.454Z,32.07
2019-04-03T09:43:27.173Z,32.68
2019-04-03T09:44:26.476Z,31.87
2019-04-03T09:45:28.200Z,32.68
2019-04-03T09:46:26.721Z,32.06
2019-04-03T09:47:26.443Z,32.46
2019-04-03T09:48:26.695Z,32.07
2019-04-03T09:49:26.660Z,32.46
2019-04-03T09:50:39.207Z,31.85
2019-04-03T09:51:26.369Z,32.97
2019-04-03T09:52:38.259Z,33.06
2019-04-03T09:53:27.331Z,31.94
2019-04-03T09:54:28.346Z,31.63
2019-04-03T09:55:26.351Z,32.67
2019-04-03T09:56:26.307Z,31.75
2019-04-03T09:57:26.281Z,32.26
2019-04-03T09:58:26.316Z,32.24
2019-04-03T09:59:26.461Z,32.76
2019-04-03T10:00:26.249Z,32.76
2019-04-03T10:01:26.401Z,32.04
2019-04-03T10:02:26.337Z,32.24
2019-04-03T10:03:26.236Z,31.94
2019-04-03T10:04:26.784Z,32.76
2019-04-03T10:05:26.733Z,32.97
2019-04-03T10:06:26.444Z,31.72
2019-04-03T10:07:26.559Z,32.24
2019-04-03T10:08:26.228Z,31.73
2019-04-03T10:09:26.293Z,32.24
2019-04-03T10:10:26.435Z,32.65
2019-04-03T10:11:26.136Z,31.94
2019-04-03T10:12:26.543Z,32.76
2019-04-03T10:13:26.345Z,32.43
2019-04-03T10:14:28.121Z,32.45
2019-04-03T10:15:26.089Z,31.72
2019-04-03T10:16:26.334Z,31.82
2019-04-03T10:17:26.066Z,31.41
2019-04-03T10:18:26.084Z,31.92
2019-04-03T10:19:26.068Z,32.54
2019-04-03T10:20:26.391Z,32.33
2019-04-03T10:21:38.895Z,32.23
2019-04-03T10:22:26.341Z,31.62
2019-04-03T10:23:26.617Z,32.03
2019-04-03T10:24:25.987Z,31.82
2019-04-03T10:25:26.199Z,32.03
2019-04-03T10:26:25.962Z,31.92
2019-04-03T10:27:25.957Z,32.35
2019-04-03T10:28:25.994Z,32.14
2019-04-03T10:29:26.276Z,32.54
2019-04-03T10:30:26.176Z,31.51
2019-04-03T10:31:25.994Z,31.51
2019-04-03T10:32:27.702Z,31.10
2019-04-03T10:33:25.886Z,31.10
2019-04-03T10:34:25.913Z,31.12
2019-04-03T10:35:25.866Z,31.12
2019-04-03T10:36:25.853Z,30.81
2019-04-03T10:37:25.840Z,31.53
2019-04-03T10:38:25.832Z,30.71
2019-04-03T10:39:25.821Z,31.72
2019-04-03T10:40:26.346Z,31.22
2019-04-03T10:41:27.702Z,31.92
2019-04-03T10:42:25.829Z,32.64
2019-04-03T10:43:25.781Z,31.91
2019-04-03T10:44:25.761Z,32.13
2019-04-03T10:45:25.754Z,32.23
2019-04-03T10:46:25.780Z,32.64
2019-04-03T10:47:39.758Z,31.82
2019-04-03T10:48:27.878Z,32.33
2019-04-03T10:49:26.117Z,31.82
2019-04-03T10:50:25.703Z,31.94
2019-04-03T10:51:25.691Z,32.03
2019-04-03T10:52:38.298Z,32.75
2019-04-03T10:53:25.668Z,32.33
2019-04-03T10:54:25.830Z,32.43
2019-04-03T10:55:25.865Z,31.82
2019-04-03T10:56:25.677Z,32.13
2019-04-03T10:57:25.620Z,32.64
2019-04-03T10:58:25.797Z,32.84
2019-04-03T10:59:25.782Z,32.33
2019-04-03T11:00:28.666Z,32.64
2019-04-03T11:01:25.662Z,32.95
2019-04-03T11:02:25.585Z,32.13
2019-04-03T11:03:26.352Z,33.46
2019-04-03T11:04:25.541Z,32.24
2019-04-03T11:05:25.532Z,33.06
2019-04-03T11:06:25.807Z,32.23
2019-04-03T11:07:25.747Z,32.24
2019-04-03T11:08:25.513Z,31.63
2019-04-03T11:09:25.695Z,32.84
2019-04-03T11:10:25.687Z,33.06
2019-04-03T11:11:27.173Z,33.25
2019-04-03T11:12:25.448Z,32.54
2019-04-03T11:13:25.741Z,31.73
2019-04-03T11:14:25.424Z,32.65
2019-04-03T11:15:25.423Z,33.25
2019-04-03T11:16:25.414Z,31.92
2019-04-03T11:17:26.026Z,33.87
2019-04-03T11:18:25.471Z,32.33
2019-04-03T11:19:25.458Z,32.23
2019-04-03T11:20:25.401Z,33.05
2019-04-03T11:21:25.430Z,33.15
2019-04-03T11:22:25.604Z,32.97
2019-04-03T11:23:43.527Z,33.37
2019-04-03T11:24:26.729Z,33.36
2019-04-03T11:25:25.319Z,32.84
2019-04-03T11:26:25.614Z,32.43
2019-04-03T11:27:40.400Z,32.64
2019-04-03T11:28:26.291Z,31.84
2019-04-03T11:29:25.276Z,31.82
2019-04-03T11:30:25.541Z,33.15
2019-04-03T11:31:28.213Z,33.15
2019-04-03T11:32:25.271Z,32.64
2019-04-03T11:33:25.571Z,33.05
2019-04-03T11:34:25.220Z,33.25
2019-04-03T11:35:25.249Z,33.46
2019-04-03T11:36:29.544Z,32.95
2019-04-03T11:37:26.326Z,32.43
2019-04-03T11:38:28.214Z,33.17
2019-04-03T11:39:25.307Z,32.75
2019-04-03T11:40:25.658Z,32.55
2019-04-03T11:41:25.131Z,31.84
2019-04-03T11:42:28.688Z,32.14
2019-04-03T11:43:25.293Z,32.26
2019-04-03T11:44:25.106Z,31.85
2019-04-03T11:45:25.083Z,33.17
2019-04-03T11:46:25.133Z,32.55
2019-04-03T11:47:25.067Z,31.94
2019-04-03T11:48:27.087Z,32.14
2019-04-03T11:49:25.042Z,32.03
2019-04-03T11:50:25.438Z,32.04
2019-04-03T11:51:25.384Z,32.97
2019-04-03T11:52:25.094Z,32.76
2019-04-03T11:53:24.994Z,32.43
2019-04-03T11:54:39.508Z,32.86
2019-04-03T11:55:24.973Z,32.86
2019-04-03T11:56:25.078Z,32.76
2019-04-03T11:57:26.754Z,32.04
2019-04-03T11:58:24.952Z,32.45
2019-04-03T11:59:24.981Z,33.06
2019-04-03T12:00:24.923Z,32.13
2019-04-03T12:01:25.145Z,32.75
2019-04-03T12:02:25.048Z,32.86
2019-04-03T12:03:25.196Z,33.05
2019-04-03T12:04:24.879Z,32.75
2019-04-03T12:05:24.931Z,32.75
2019-04-03T12:06:25.192Z,32.23
2019-04-03T12:07:25.529Z,32.33
2019-04-03T12:08:25.932Z,33.17
2019-04-03T12:09:24.971Z,32.16
2019-04-03T12:10:26.083Z,32.78
2019-04-03T12:11:24.887Z,32.76
2019-04-03T12:12:24.850Z,32.78
2019-04-03T12:13:24.772Z,33.08
2019-04-03T12:14:24.796Z,33.59
2019-04-03T12:15:24.765Z,33.08
2019-04-03T12:16:26.015Z,33.59
2019-04-03T12:17:24.766Z,32.06
2019-04-03T12:18:24.722Z,32.98
2019-04-03T12:19:24.706Z,32.16
2019-04-03T12:20:25.160Z,32.98
2019-04-03T12:21:24.685Z,32.98
2019-04-03T12:22:24.676Z,31.85
2019-04-03T12:23:26.762Z,31.85
2019-04-03T12:24:25.107Z,32.57
2019-04-03T12:25:39.548Z,31.85
2019-04-03T12:26:24.628Z,31.73
2019-04-03T12:27:24.654Z,32.45
2019-04-03T12:28:24.609Z,33.27
2019-04-03T12:29:24.593Z,32.65
2019-04-03T12:30:26.400Z,33.37
2019-04-03T12:31:24.570Z,32.75
2019-04-03T12:32:36.615Z,32.03
2019-04-03T12:33:25.589Z,32.35
2019-04-03T12:34:24.538Z,31.94
2019-04-03T12:35:24.536Z,31.73
2019-04-03T12:36:27.063Z,32.97
2019-04-03T12:37:25.482Z,32.35
2019-04-03T12:38:24.495Z,33.18
2019-04-03T12:39:26.187Z,32.97
2019-04-03T12:40:24.746Z,32.06
2019-04-03T12:41:26.611Z,33.08
2019-04-03T12:42:25.554Z,32.98
2019-04-03T12:43:24.455Z,32.98
2019-04-03T12:44:24.434Z,32.98
2019-04-03T12:45:26.871Z,32.98
2019-04-03T12:46:24.399Z,32.46
2019-04-03T12:47:27.209Z,33.08
2019-04-03T12:48:24.385Z,33.80
2019-04-03T12:49:24.372Z,34.11
2019-04-03T12:50:26.854Z,33.70
2019-04-03T12:51:24.386Z,33.37
2019-04-03T12:52:24.338Z,33.08
2019-04-03T12:53:24.572Z,33.18
2019-04-03T12:54:24.414Z,33.28
2019-04-03T12:55:25.957Z,33.49